createdAt,value
2019-06-08T00:00:44.349Z,1002.5
2019-06-08T00:01:45.721Z,1002.4
2019-06-08T00:02:47.095Z,1002.5
2019-06-08T00:03:48.459Z,1002.5
2019-06-08T00:04:49.829Z,1002.5
2019-06-08T00:05:51.196Z,1002.5
2019-06-08T00:06:52.566Z,1002.4
2019-06-08T00:07:53.935Z,1002.4
2019-06-08T00:08:55.331Z,1002.4
2019-06-08T00:09:56.701Z,1002.5
2019-06-08T00:10:58.067Z,1002.4
2019-06-08T00:11:59.439Z,1002.3
2019-06-08T00:13:00.808Z,1002.4
2019-06-08T00:14:02.182Z,1002.5
2019-06-08T00:15:03.545Z,1002.4
2019-06-08T00:16:04.915Z,1002.3
2019-06-08T00:17:06.285Z,1002.2
2019-06-08T00:18:07.652Z,1002.3
2019-06-08T00:19:09.022Z,1002.4
2019-06-08T00:20:10.390Z,1002.3
2019-06-08T00:21:11.765Z,1002.4
2019-06-08T00:22:13.655Z,1002.3
2019-06-08T00:23:15.669Z,1002.2
2019-06-08T00:24:15.803Z,1002.3
2019-06-08T00:25:18.234Z,1002.4
2019-06-08T00:26:18.497Z,1002.5
2019-06-08T00:27:21.416Z,1002.5
2019-06-08T00:28:22.473Z,1002.5
2019-06-08T00:29:22.537Z,1002.6
2019-06-08T00:30:23.900Z,1002.6
2019-06-08T00:31:25.272Z,1002.5
2019-06-08T00:32:26.654Z,1002.5
2019-06-08T00:33:28.011Z,1002.5
2019-06-08T00:34:29.380Z,1002.4
2019-06-08T00:35:30.749Z,1002.5
2019-06-08T00:36:32.124Z,1002.6
2019-06-08T00:37:33.492Z,1002.6
2019-06-08T00:38:34.866Z,1002.6
2019-06-08T00:39:36.234Z,1002.7
2019-06-08T00:40:37.603Z,1002.7
2019-06-08T00:41:38.984Z,1002.7
2019-06-08T00:42:40.358Z,1002.8
2019-06-08T00:43:41.726Z,1002.8
2019-06-08T00:44:43.098Z,1002.8
2019-06-08T00:45:44.464Z,1002.8
2019-06-08T00:46:45.830Z,1002.8
2019-06-08T00:47:48.255Z,1002.8
2019-06-08T00:48:48.533Z,1002.9
2019-06-08T00:49:49.904Z,1002.9
2019-06-08T00:50:51.278Z,1002.9
2019-06-08T00:51:52.655Z,1002.9
2019-06-08T00:52:54.026Z,1002.9
2019-06-08T00:53:55.389Z,1003.0
2019-06-08T00:54:56.757Z,1003.0
2019-06-08T00:55:58.128Z,1003.0
2019-06-08T00:56:59.499Z,1002.9
2019-06-08T00:58:00.868Z,1003.0
2019-06-08T00:59:02.237Z,1003.0
2019-06-08T01:00:10.287Z,1003.1
2019-06-08T01:01:04.953Z,1002.9
2019-06-08T01:02:06.324Z,1002.9
2019-06-08T01:03:07.686Z,1003.0
2019-06-08T01:04:09.057Z,1002.9
2019-06-08T01:05:10.426Z,1002.9
2019-06-08T01:06:11.797Z,1002.9
2019-06-08T01:07:13.166Z,1002.8
2019-06-08T01:08:14.608Z,1002.8
2019-06-08T01:09:15.894Z,1002.9
2019-06-08T01:10:17.268Z,1002.9
2019-06-08T01:11:18.703Z,1003.0
2019-06-08T01:12:20.515Z,1002.9
2019-06-08T01:13:22.815Z,1003.0
2019-06-08T01:14:22.919Z,1003.0
2019-06-08T01:15:29.676Z,1003.1
2019-06-08T01:16:25.391Z,1003.1
2019-06-08T01:17:27.504Z,1003.1
2019-06-08T01:18:29.309Z,1003.1
2019-06-08T01:19:29.642Z,1003.1
2019-06-08T01:20:30.757Z,1003.2
2019-06-08T01:21:32.193Z,1003.2
2019-06-08T01:22:33.521Z,1003.2
2019-06-08T01:23:34.891Z,1003.2
2019-06-08T01:24:36.262Z,1003.2
2019-06-08T01:25:37.636Z,1003.2
2019-06-08T01:26:39.009Z,1003.2
2019-06-08T01:27:40.378Z,1003.2
2019-06-08T01:28:41.757Z,1003.2
2019-06-08T01:29:43.124Z,1003.2
2019-06-08T01:30:44.495Z,1003.2
2019-06-08T01:31:45.863Z,1003.2
2019-06-08T01:32:47.230Z,1003.2
2019-06-08T01:33:48.605Z,1003.2
2019-06-08T01:34:49.968Z,1003.2
2019-06-08T01:35:51.339Z,1003.2
2019-06-08T01:36:52.709Z,1003.2
2019-06-08T01:37:54.076Z,1003.2
2019-06-08T01:38:55.440Z,1003.3
2019-06-08T01:39:56.807Z,1003.2
2019-06-08T01:40:58.177Z,1003.2
2019-06-08T01:41:59.548Z,1003.2
2019-06-08T01:43:00.922Z,1003.3
2019-06-08T01:44:02.289Z,1003.3
2019-06-08T01:45:03.945Z,1003.4
2019-06-08T01:46:05.133Z,1003.4
2019-06-08T01:47:06.555Z,1003.2
2019-06-08T01:48:19.431Z,1003.3
2019-06-08T01:49:09.270Z,1003.2
2019-06-08T01:50:10.640Z,1003.4
2019-06-08T01:51:12.007Z,1003.2
2019-06-08T01:52:13.375Z,1003.2
2019-06-08T01:53:14.746Z,1003.3
2019-06-08T01:54:16.112Z,1003.3
2019-06-08T01:55:17.481Z,1003.2
2019-06-08T01:56:18.852Z,1003.3
2019-06-08T01:57:20.219Z,1003.3
2019-06-08T01:58:21.584Z,1003.2
2019-06-08T01:59:23.326Z,1003.2
2019-06-08T02:00:37.928Z,1003.3
2019-06-08T02:01:25.661Z,1003.3
2019-06-08T02:02:27.849Z,1003.2
2019-06-08T02:03:28.369Z,1003.3
2019-06-08T02:04:30.031Z,1003.3
2019-06-08T02:05:32.382Z,1003.2
2019-06-08T02:06:32.455Z,1003.2
2019-06-08T02:07:34.577Z,1003.3
2019-06-08T02:08:35.062Z,1003.2
2019-06-08T02:09:36.436Z,1003.3
2019-06-08T02:10:37.810Z,1003.3
2019-06-08T02:11:39.179Z,1003.3
2019-06-08T02:12:40.547Z,1003.3
2019-06-08T02:13:41.914Z,1003.3
2019-06-08T02:14:43.279Z,1003.4
2019-06-08T02:15:44.650Z,1003.3
2019-06-08T02:16:46.020Z,1003.4
2019-06-08T02:17:47.394Z,1003.3
2019-06-08T02:18:51.125Z,1003.4
2019-06-08T02:19:50.101Z,1003.4
2019-06-08T02:20:51.500Z,1003.3
2019-06-08T02:21:52.836Z,1003.4
2019-06-08T02:22:54.204Z,1003.3
2019-06-08T02:23:55.575Z,1003.4
2019-06-08T02:24:56.943Z,1003.4
2019-06-08T02:25:58.318Z,1003.4
2019-06-08T02:26:59.683Z,1003.4
2019-06-08T02:28:01.051Z,1003.4
2019-06-08T02:29:02.442Z,1003.4
2019-06-08T02:30:03.811Z,1003.5
2019-06-08T02:31:05.196Z,1003.5
2019-06-08T02:32:06.553Z,1003.6
2019-06-08T02:33:07.913Z,1003.5
2019-06-08T02:34:09.281Z,1003.4
2019-06-08T02:35:10.652Z,1003.5
2019-06-08T02:36:12.018Z,1003.5
2019-06-08T02:37:13.386Z,1003.5
2019-06-08T02:38:14.754Z,1003.5
2019-06-08T02:39:16.125Z,1003.6
2019-06-08T02:40:17.498Z,1003.5
2019-06-08T02:41:18.861Z,1003.4
2019-06-08T02:42:20.230Z,1003.5
2019-06-08T02:43:21.602Z,1003.5
2019-06-08T02:44:22.964Z,1003.5
2019-06-08T02:45:24.343Z,1003.6
2019-06-08T02:46:25.703Z,1003.5
2019-06-08T02:47:28.257Z,1003.6
2019-06-08T02:48:29.512Z,1003.7
2019-06-08T02:49:31.010Z,1003.8
2019-06-08T02:50:32.974Z,1003.6
2019-06-08T02:51:34.314Z,1003.7
2019-06-08T02:52:34.314Z,1003.8
2019-06-08T02:53:36.847Z,1003.8
2019-06-08T02:54:37.886Z,1003.8
2019-06-08T02:55:39.432Z,1003.8
2019-06-08T02:56:41.030Z,1003.9
2019-06-08T02:57:40.405Z,1003.9
2019-06-08T02:58:41.778Z,1003.8
2019-06-08T02:59:43.147Z,1003.8
2019-06-08T03:00:44.518Z,1003.9
2019-06-08T03:01:45.889Z,1003.8
2019-06-08T03:02:47.263Z,1003.8
2019-06-08T03:03:48.629Z,1003.8
2019-06-08T03:04:49.997Z,1003.9
2019-06-08T03:05:51.367Z,1003.9
2019-06-08T03:06:52.743Z,1003.9
2019-06-08T03:07:54.106Z,1004.0
2019-06-08T03:08:55.481Z,1003.7
2019-06-08T03:09:56.855Z,1003.9
2019-06-08T03:10:58.225Z,1004.0
2019-06-08T03:11:59.590Z,1004.0
2019-06-08T03:13:00.960Z,1003.9
2019-06-08T03:14:02.328Z,1004.1
2019-06-08T03:15:03.709Z,1004.0
2019-06-08T03:16:05.077Z,1004.1
2019-06-08T03:17:06.446Z,1004.1
2019-06-08T03:18:07.856Z,1004.0
2019-06-08T03:19:20.887Z,1004.1
2019-06-08T03:20:10.531Z,1004.0
2019-06-08T03:21:11.897Z,1004.1
2019-06-08T03:22:13.273Z,1004.0
2019-06-08T03:23:14.644Z,1004.1
2019-06-08T03:24:16.013Z,1004.1
2019-06-08T03:25:17.389Z,1004.0
2019-06-08T03:26:18.858Z,1004.1
2019-06-08T03:27:20.110Z,1004.2
2019-06-08T03:28:21.483Z,1004.1
2019-06-08T03:29:22.861Z,1004.1
2019-06-08T03:30:24.234Z,1004.0
2019-06-08T03:31:25.608Z,1004.1
2019-06-08T03:32:26.992Z,1003.8
2019-06-08T03:33:28.351Z,1004.1
2019-06-08T03:34:29.727Z,1004.0
2019-06-08T03:35:31.091Z,1004.1
2019-06-08T03:36:34.999Z,1004.1
2019-06-08T03:37:35.610Z,1004.1
2019-06-08T03:38:35.775Z,1004.2
2019-06-08T03:39:37.007Z,1004.1
2019-06-08T03:40:38.229Z,1004.1
2019-06-08T03:41:40.300Z,1004.2
2019-06-08T03:42:40.490Z,1004.1
2019-06-08T03:43:42.404Z,1004.2
2019-06-08T03:44:44.459Z,1004.2
2019-06-08T03:45:45.384Z,1004.2
2019-06-08T03:46:46.089Z,1004.2
2019-06-08T03:47:47.211Z,1004.3
2019-06-08T03:48:48.584Z,1004.3
2019-06-08T03:49:56.359Z,1004.3
2019-06-08T03:50:51.286Z,1004.3
2019-06-08T03:51:52.663Z,1004.3
2019-06-08T03:52:54.032Z,1004.3
2019-06-08T03:53:55.405Z,1004.3
2019-06-08T03:54:56.774Z,1004.3
2019-06-08T03:55:58.150Z,1004.3
2019-06-08T03:56:59.521Z,1004.3
2019-06-08T03:58:00.894Z,1004.4
2019-06-08T03:59:02.266Z,1004.5
2019-06-08T04:00:12.555Z,1004.2
2019-06-08T04:01:04.984Z,1004.5
2019-06-08T04:02:06.360Z,1004.6
2019-06-08T04:03:07.732Z,1004.2
2019-06-08T04:04:09.110Z,1004.6
2019-06-08T04:05:10.472Z,1004.3
2019-06-08T04:06:11.847Z,1004.5
2019-06-08T04:07:13.220Z,1004.5
2019-06-08T04:08:14.610Z,1004.5
2019-06-08T04:09:15.972Z,1004.5
2019-06-08T04:10:17.342Z,1004.6
2019-06-08T04:11:18.716Z,1004.5
2019-06-08T04:12:20.089Z,1004.5
2019-06-08T04:13:21.469Z,1004.6
2019-06-08T04:14:22.837Z,1004.7
2019-06-08T04:15:24.213Z,1004.5
2019-06-08T04:16:25.583Z,1004.6
2019-06-08T04:17:26.957Z,1004.6
2019-06-08T04:18:28.333Z,1004.6
2019-06-08T04:19:29.706Z,1004.7
2019-06-08T04:20:31.083Z,1004.7
2019-06-08T04:21:32.455Z,1004.6
2019-06-08T04:22:33.829Z,1004.7
2019-06-08T04:23:35.201Z,1004.7
2019-06-08T04:24:37.930Z,1004.7
2019-06-08T04:25:38.275Z,1004.8
2019-06-08T04:26:40.602Z,1004.9
2019-06-08T04:27:42.161Z,1004.9
2019-06-08T04:28:42.502Z,1004.8
2019-06-08T04:29:43.987Z,1004.8
2019-06-08T04:30:45.303Z,1004.9
2019-06-08T04:31:46.049Z,1004.9
2019-06-08T04:32:47.522Z,1004.7
2019-06-08T04:33:48.619Z,1004.8
2019-06-08T04:34:50.119Z,1004.8
2019-06-08T04:35:51.329Z,1004.8
2019-06-08T04:36:52.703Z,1004.8
2019-06-08T04:37:54.077Z,1004.9
2019-06-08T04:38:55.449Z,1004.9
2019-06-08T04:39:56.828Z,1004.8
2019-06-08T04:40:58.200Z,1004.7
2019-06-08T04:41:59.578Z,1004.9
2019-06-08T04:43:00.947Z,1004.8
2019-06-08T04:44:02.351Z,1005.0
2019-06-08T04:45:03.694Z,1004.9
2019-06-08T04:46:05.066Z,1004.8
2019-06-08T04:47:06.440Z,1005.0
2019-06-08T04:48:09.755Z,1004.9
2019-06-08T04:49:09.153Z,1005.0
2019-06-08T04:50:21.552Z,1004.9
2019-06-08T04:51:11.865Z,1004.9
2019-06-08T04:52:13.234Z,1005.1
2019-06-08T04:53:14.605Z,1004.8
2019-06-08T04:54:15.985Z,1005.0
2019-06-08T04:55:17.355Z,1004.9
2019-06-08T04:56:18.731Z,1005.0
2019-06-08T04:57:20.107Z,1005.1
2019-06-08T04:58:21.477Z,1005.1
2019-06-08T04:59:22.861Z,1005.0
2019-06-08T05:00:24.224Z,1005.0
2019-06-08T05:01:25.598Z,1005.1
2019-06-08T05:02:26.972Z,1005.2
2019-06-08T05:03:28.348Z,1005.2
2019-06-08T05:04:29.724Z,1005.2
2019-06-08T05:05:31.105Z,1005.2
2019-06-08T05:06:32.470Z,1005.1
2019-06-08T05:07:33.845Z,1005.2
2019-06-08T05:08:35.220Z,1005.2
2019-06-08T05:09:36.596Z,1005.2
2019-06-08T05:10:39.077Z,1005.3
2019-06-08T05:11:39.370Z,1005.2
2019-06-08T05:12:41.293Z,1005.2
2019-06-08T05:13:43.185Z,1005.1
2019-06-08T05:14:43.333Z,1005.3
2019-06-08T05:15:45.439Z,1005.2
2019-06-08T05:16:47.388Z,1005.2
2019-06-08T05:17:47.477Z,1005.2
2019-06-08T05:18:49.671Z,1005.2
2019-06-08T05:19:50.503Z,1005.2
2019-06-08T05:20:51.616Z,1005.3
2019-06-08T05:21:52.739Z,1005.3
2019-06-08T05:22:54.118Z,1005.4
2019-06-08T05:23:58.935Z,1005.4
2019-06-08T05:24:56.826Z,1005.2
2019-06-08T05:25:58.197Z,1005.4
2019-06-08T05:26:59.572Z,1005.4
2019-06-08T05:28:00.946Z,1005.4
2019-06-08T05:29:02.320Z,1005.5
2019-06-08T05:30:08.425Z,1005.4
2019-06-08T05:31:05.036Z,1005.5
2019-06-08T05:32:06.414Z,1005.5
2019-06-08T05:33:07.787Z,1005.6
2019-06-08T05:34:09.158Z,1005.6
2019-06-08T05:35:10.538Z,1005.6
2019-06-08T05:36:11.922Z,1005.6
2019-06-08T05:37:13.290Z,1005.7
2019-06-08T05:38:14.669Z,1005.7
2019-06-08T05:39:16.044Z,1005.5
2019-06-08T05:40:17.420Z,1005.7
2019-06-08T05:41:18.788Z,1005.6
2019-06-08T05:42:20.164Z,1005.6
2019-06-08T05:43:21.543Z,1005.8
2019-06-08T05:44:22.912Z,1005.6
2019-06-08T05:45:24.287Z,1005.5
2019-06-08T05:46:25.666Z,1005.7
2019-06-08T05:47:27.037Z,1005.7
2019-06-08T05:48:28.411Z,1005.8
2019-06-08T05:49:29.789Z,1005.8
2019-06-08T05:50:31.175Z,1005.7
2019-06-08T05:51:32.537Z,1005.7
2019-06-08T05:52:33.926Z,1005.9
2019-06-08T05:53:35.289Z,1005.8
2019-06-08T05:54:36.660Z,1005.8
2019-06-08T05:55:38.055Z,1006.0
2019-06-08T05:56:39.798Z,1006.0
2019-06-08T05:57:42.027Z,1005.9
2019-06-08T05:58:42.089Z,1005.9
2019-06-08T05:59:44.044Z,1006.0
2019-06-08T06:00:46.173Z,1006.0
2019-06-08T06:01:46.764Z,1005.9
2019-06-08T06:02:48.805Z,1006.0
2019-06-08T06:03:48.832Z,1006.1
2019-06-08T06:04:53.424Z,1006.2
2019-06-08T06:05:51.607Z,1006.3
2019-06-08T06:06:52.986Z,1006.3
2019-06-08T06:07:54.360Z,1006.2
2019-06-08T06:08:55.736Z,1006.1
2019-06-08T06:09:57.112Z,1006.3
2019-06-08T06:10:58.487Z,1006.2
2019-06-08T06:11:59.864Z,1006.0
2019-06-08T06:13:01.241Z,1006.1
2019-06-08T06:14:02.659Z,1006.3
2019-06-08T06:15:04.027Z,1006.4
2019-06-08T06:16:05.411Z,1006.3
2019-06-08T06:17:06.780Z,1006.5
2019-06-08T06:18:08.156Z,1006.4
2019-06-08T06:19:09.532Z,1006.3
2019-06-08T06:20:10.908Z,1006.3
2019-06-08T06:21:12.583Z,1006.4
2019-06-08T06:22:13.627Z,1006.4
2019-06-08T06:23:15.008Z,1006.4
2019-06-08T06:24:16.381Z,1006.6
2019-06-08T06:25:17.754Z,1006.7
2019-06-08T06:26:19.130Z,1006.8
2019-06-08T06:27:20.506Z,1006.6
2019-06-08T06:28:21.886Z,1006.5
2019-06-08T06:29:23.266Z,1006.4
2019-06-08T06:30:24.639Z,1006.5
2019-06-08T06:31:26.015Z,1006.4
2019-06-08T06:32:27.418Z,1006.6
2019-06-08T06:33:28.768Z,1006.7
2019-06-08T06:34:30.145Z,1006.7
2019-06-08T06:35:31.529Z,1007.3
2019-06-08T06:36:32.909Z,1007.4
2019-06-08T06:37:34.293Z,1006.6
2019-06-08T06:38:35.673Z,1006.6
2019-06-08T06:39:37.047Z,1006.8
2019-06-08T06:40:38.441Z,1008.6
2019-06-08T06:41:39.802Z,1007.9
2019-06-08T06:42:42.062Z,1007.3
2019-06-08T06:43:43.872Z,1007.0
2019-06-08T06:44:45.697Z,1007.8
2019-06-08T06:45:45.991Z,1007.2
2019-06-08T06:46:46.564Z,1006.9
2019-06-08T06:47:48.442Z,1006.7
2019-06-08T06:48:50.384Z,1006.6
2019-06-08T06:49:50.772Z,1007.1
2019-06-08T06:50:52.569Z,1007.5
2019-06-08T06:51:53.330Z,1006.9
2019-06-08T06:52:54.707Z,1006.9
2019-06-08T06:53:56.085Z,1007.5
2019-06-08T06:54:57.469Z,1007.0
2019-06-08T06:55:58.851Z,1007.9
2019-06-08T06:57:00.228Z,1007.3
2019-06-08T06:58:01.619Z,1007.0
2019-06-08T06:59:02.989Z,1007.3
2019-06-08T07:00:04.367Z,1007.1
2019-06-08T07:01:05.788Z,1007.1
2019-06-08T07:02:07.123Z,1007.1
2019-06-08T07:03:08.509Z,1007.2
2019-06-08T07:04:09.889Z,1007.0
2019-06-08T07:05:11.268Z,1007.2
2019-06-08T07:06:12.649Z,1007.0
2019-06-08T07:07:14.025Z,1007.1
2019-06-08T07:08:15.407Z,1007.2
2019-06-08T07:09:16.793Z,1007.2
2019-06-08T07:10:18.164Z,1007.2
2019-06-08T07:11:19.542Z,1007.3
2019-06-08T07:12:20.937Z,1007.4
2019-06-08T07:13:22.297Z,1008.2
2019-06-08T07:14:23.676Z,1007.4
2019-06-08T07:15:25.051Z,1007.3
2019-06-08T07:16:26.476Z,1007.1
2019-06-08T07:17:27.942Z,1007.2
2019-06-08T07:18:29.190Z,1007.3
2019-06-08T07:19:30.571Z,1007.4
2019-06-08T07:20:31.947Z,1007.2
2019-06-08T07:21:41.273Z,1007.3
2019-06-08T07:22:34.666Z,1007.3
2019-06-08T07:23:36.044Z,1007.3
2019-06-08T07:24:37.426Z,1007.4
2019-06-08T07:25:38.804Z,1007.6
2019-06-08T07:26:40.181Z,1007.3
2019-06-08T07:27:41.559Z,1007.8
2019-06-08T07:28:42.932Z,1007.7
2019-06-08T07:29:44.309Z,1008.7
2019-06-08T07:30:47.266Z,1007.5
2019-06-08T07:31:48.318Z,1007.6
2019-06-08T07:32:49.133Z,1007.7
2019-06-08T07:33:51.533Z,1007.9
2019-06-08T07:34:51.552Z,1007.6
2019-06-08T07:35:53.256Z,1007.6
2019-06-08T07:36:55.359Z,1007.6
2019-06-08T07:37:55.546Z,1007.9
2019-06-08T07:38:56.616Z,1007.9
2019-06-08T07:39:57.995Z,1007.7
2019-06-08T07:41:01.428Z,1007.9
2019-06-08T07:42:01.588Z,1008.4
2019-06-08T07:43:02.952Z,1007.6
2019-06-08T07:44:04.365Z,1007.6
2019-06-08T07:45:05.813Z,1007.7
2019-06-08T07:46:07.190Z,1007.8
2019-06-08T07:47:08.703Z,1007.9
2019-06-08T07:48:10.082Z,1008.1
2019-06-08T07:49:12.057Z,1008.1
2019-06-08T07:50:13.292Z,1008.4
2019-06-08T07:51:14.667Z,1008.4
2019-06-08T07:52:16.052Z,1008.8
2019-06-08T07:53:17.426Z,1008.4
2019-06-08T07:54:18.806Z,1008.0
2019-06-08T07:55:20.185Z,1007.9
2019-06-08T07:56:21.561Z,1007.8
2019-06-08T07:57:22.937Z,1008.2
2019-06-08T07:58:24.322Z,1007.9
2019-06-08T07:59:25.696Z,1007.9
2019-06-08T08:00:27.081Z,1008.0
2019-06-08T08:01:36.363Z,1008.0
2019-06-08T08:02:29.796Z,1008.0
2019-06-08T08:03:31.173Z,1008.1
2019-06-08T08:04:32.551Z,1008.0
2019-06-08T08:05:33.930Z,1007.8
2019-06-08T08:06:35.311Z,1007.7
2019-06-08T08:07:36.688Z,1008.1
2019-06-08T08:08:38.071Z,1008.1
2019-06-08T08:09:39.449Z,1008.1
2019-06-08T08:10:40.823Z,1008.2
2019-06-08T08:11:42.242Z,1007.8
2019-06-08T08:12:43.614Z,1008.0
2019-06-08T08:13:44.995Z,1008.0
2019-06-08T08:14:46.376Z,1007.8
2019-06-08T08:15:49.023Z,1008.0
2019-06-08T08:16:49.101Z,1008.1
2019-06-08T08:17:52.249Z,1007.8
2019-06-08T08:18:51.820Z,1008.2
2019-06-08T08:19:53.197Z,1008.0
2019-06-08T08:20:55.833Z,1008.2
2019-06-08T08:21:57.042Z,1008.0
2019-06-08T08:23:03.639Z,1008.0
2019-06-08T08:24:00.196Z,1008.2
2019-06-08T08:25:04.163Z,1008.5
2019-06-08T08:26:01.861Z,1008.7
2019-06-08T08:27:03.778Z,1008.8
2019-06-08T08:28:04.166Z,1008.7
2019-06-08T08:29:05.548Z,1008.4
2019-06-08T08:30:08.343Z,1008.5
2019-06-08T08:31:10.873Z,1008.6
2019-06-08T08:32:09.967Z,1008.5
2019-06-08T08:33:10.974Z,1008.5
2019-06-08T08:34:12.352Z,1008.2
2019-06-08T08:35:13.773Z,1008.2
2019-06-08T08:36:15.328Z,1008.4
2019-06-08T08:37:17.540Z,1008.3
2019-06-08T08:38:18.054Z,1008.2
2019-06-08T08:39:19.429Z,1008.3
2019-06-08T08:40:20.806Z,1008.4
2019-06-08T08:41:22.222Z,1008.5
2019-06-08T08:42:23.615Z,1008.4
2019-06-08T08:43:24.998Z,1008.2
2019-06-08T08:44:28.229Z,1008.3
2019-06-08T08:45:27.730Z,1008.4
2019-06-08T08:46:29.101Z,1008.3
2019-06-08T08:47:30.825Z,1008.3
2019-06-08T08:48:31.905Z,1008.2
2019-06-08T08:49:33.159Z,1008.2
2019-06-08T08:50:34.539Z,1008.5
2019-06-08T08:51:37.662Z,1008.7
2019-06-08T08:52:40.386Z,1008.7
2019-06-08T08:53:38.615Z,1008.8
2019-06-08T08:54:42.635Z,1009.7
2019-06-08T08:55:41.323Z,1008.5
2019-06-08T08:56:42.703Z,1009.6
2019-06-08T08:57:44.078Z,1009.5
2019-06-08T08:58:47.653Z,1009.7
2019-06-08T08:59:47.704Z,1010.2
2019-06-08T09:00:48.738Z,1010.2
2019-06-08T09:01:51.263Z,1010.5
2019-06-08T09:03:10.732Z,1009.3
2019-06-08T09:03:55.595Z,1009.1
2019-06-08T09:04:55.130Z,1009.1
2019-06-08T09:05:55.721Z,1008.7
2019-06-08T09:07:02.366Z,1008.7
2019-06-08T09:07:58.768Z,1008.6
2019-06-08T09:09:00.853Z,1008.7
2019-06-08T09:10:02.305Z,1008.6
2019-06-08T09:11:03.582Z,1008.5
2019-06-08T09:12:04.295Z,1008.5
2019-06-08T09:13:04.736Z,1008.6
2019-06-08T09:14:09.659Z,1008.6
2019-06-08T09:15:08.585Z,1008.7
2019-06-08T09:16:08.412Z,1008.7
2019-06-08T09:17:09.646Z,1008.7
2019-06-08T09:18:11.027Z,1009.0
2019-06-08T09:19:12.421Z,1009.0
2019-06-08T09:20:15.883Z,1010.7
2019-06-08T09:21:15.135Z,1009.2
2019-06-08T09:22:18.629Z,1009.7
2019-06-08T09:23:21.646Z,1009.6
2019-06-08T09:24:19.201Z,1009.5
2019-06-08T09:25:20.585Z,1010.8
2019-06-08T09:26:21.964Z,1010.1
2019-06-08T09:27:23.355Z,1010.1
2019-06-08T09:28:24.755Z,1010.1
2019-06-08T09:29:28.737Z,1009.7
2019-06-08T09:30:27.603Z,1009.6
2019-06-08T09:31:30.858Z,1009.4
2019-06-08T09:32:30.173Z,1009.4
2019-06-08T09:33:31.578Z,1009.7
2019-06-08T09:34:32.955Z,1009.7
2019-06-08T09:35:34.329Z,1009.8
2019-06-08T09:36:37.650Z,1010.2
2019-06-08T09:37:37.550Z,1009.7
2019-06-08T09:38:38.691Z,1009.6
2019-06-08T09:39:39.744Z,1008.9
2019-06-08T09:40:41.133Z,1009.1
2019-06-08T09:41:42.517Z,1009.3
2019-06-08T09:42:43.905Z,1009.8
2019-06-08T09:43:45.301Z,1009.9
2019-06-08T09:44:48.254Z,1009.1
2019-06-08T09:45:48.359Z,1009.4
2019-06-08T09:46:49.363Z,1009.1
2019-06-08T09:47:50.757Z,1009.3
2019-06-08T09:48:54.013Z,1009.4
2019-06-08T09:49:54.202Z,1009.1
2019-06-08T09:50:55.149Z,1009.4
2019-06-08T09:51:58.733Z,1009.8
2019-06-08T09:53:14.972Z,1009.6
2019-06-08T09:54:02.144Z,1009.7
2019-06-08T09:55:02.826Z,1009.7
2019-06-08T09:56:04.578Z,1009.6
2019-06-08T09:57:03.966Z,1009.3
2019-06-08T09:58:06.664Z,1009.5
2019-06-08T09:59:08.358Z,1009.6
2019-06-08T10:00:15.390Z,1010.0
2019-06-08T10:01:09.135Z,1010.0
2019-06-08T10:02:12.670Z,1010.0
2019-06-08T10:03:10.979Z,1009.9
2019-06-08T10:04:12.361Z,1009.4
2019-06-08T10:05:13.744Z,1009.6
2019-06-08T10:06:15.123Z,1009.3
2019-06-08T10:07:18.482Z,1009.3
2019-06-08T10:08:20.218Z,1009.8
2019-06-08T10:09:19.201Z,1009.7
2019-06-08T10:10:20.585Z,1009.3
2019-06-08T10:11:21.983Z,1009.4
2019-06-08T10:12:23.349Z,1009.4
2019-06-08T10:13:24.734Z,1009.3
2019-06-08T10:14:28.073Z,1009.3
2019-06-08T10:15:27.817Z,1009.3
2019-06-08T10:16:30.804Z,1009.2
2019-06-08T10:17:30.169Z,1009.6
2019-06-08T10:18:31.555Z,1010.2
2019-06-08T10:19:32.937Z,1009.5
2019-06-08T10:20:34.321Z,1009.7
2019-06-08T10:21:38.355Z,1009.6
2019-06-08T10:22:37.041Z,1009.6
2019-06-08T10:23:41.320Z,1009.6
2019-06-08T10:24:41.489Z,1009.4
2019-06-08T10:25:41.113Z,1009.5
2019-06-08T10:26:42.487Z,1009.3
2019-06-08T10:27:43.866Z,1009.4
2019-06-08T10:28:45.246Z,1009.5
2019-06-08T10:29:48.191Z,1009.6
2019-06-08T10:30:48.514Z,1009.3
2019-06-08T10:31:49.314Z,1009.4
2019-06-08T10:32:50.947Z,1009.4
2019-06-08T10:33:52.037Z,1009.3
2019-06-08T10:34:53.414Z,1009.4
2019-06-08T10:35:55.631Z,1009.3
2019-06-08T10:37:00.719Z,1009.3
2019-06-08T10:38:01.501Z,1009.4
2019-06-08T10:39:01.807Z,1009.4
2019-06-08T10:40:02.560Z,1009.6
2019-06-08T10:41:08.657Z,1009.5
2019-06-08T10:42:03.532Z,1009.5
2019-06-08T10:43:04.903Z,1009.5
2019-06-08T10:44:08.122Z,1009.6
2019-06-08T10:45:10.437Z,1009.5
2019-06-08T10:46:14.734Z,1009.6
2019-06-08T10:47:11.562Z,1009.5
2019-06-08T10:48:10.964Z,1009.5
2019-06-08T10:49:14.134Z,1009.6
2019-06-08T10:50:15.371Z,1009.5
2019-06-08T10:51:15.025Z,1009.6
2019-06-08T10:52:20.099Z,1009.7
2019-06-08T10:53:17.851Z,1009.7
2019-06-08T10:54:19.089Z,1009.7
2019-06-08T10:55:20.471Z,1009.6
2019-06-08T10:56:21.845Z,1009.8
2019-06-08T10:57:23.222Z,1009.7
2019-06-08T10:58:24.602Z,1009.8
2019-06-08T10:59:25.981Z,1009.8
2019-06-08T11:00:28.203Z,1009.8
2019-06-08T11:01:28.705Z,1009.6
2019-06-08T11:02:30.082Z,1009.7
2019-06-08T11:03:31.462Z,1009.6
2019-06-08T11:04:32.838Z,1009.7
2019-06-08T11:05:34.222Z,1009.8
2019-06-08T11:06:39.855Z,1009.9
2019-06-08T11:07:38.050Z,1009.7
2019-06-08T11:08:39.067Z,1009.9
2019-06-08T11:09:39.635Z,1010.1
2019-06-08T11:10:41.018Z,1010.0
2019-06-08T11:11:42.405Z,1010.0
2019-06-08T11:12:43.779Z,1010.0
2019-06-08T11:13:45.162Z,1010.3
2019-06-08T11:14:48.093Z,1010.0
2019-06-08T11:15:48.124Z,1010.1
2019-06-08T11:16:49.227Z,1010.0
2019-06-08T11:17:50.618Z,1010.2
2019-06-08T11:18:51.997Z,1009.9
2019-06-08T11:19:53.371Z,1010.2
2019-06-08T11:20:54.756Z,1010.1
2019-06-08T11:21:57.980Z,1010.0
2019-06-08T11:22:58.339Z,1009.9
2019-06-08T11:24:07.569Z,1009.9
2019-06-08T11:25:01.773Z,1010.0
2019-06-08T11:26:04.646Z,1009.9
2019-06-08T11:27:03.540Z,1009.9
2019-06-08T11:28:05.474Z,1010.0
2019-06-08T11:29:09.502Z,1010.0
2019-06-08T11:30:15.429Z,1009.9
2019-06-08T11:31:13.148Z,1009.9
2019-06-08T11:32:12.090Z,1010.0
2019-06-08T11:33:12.439Z,1010.0
2019-06-08T11:34:12.449Z,1010.2
2019-06-08T11:35:13.816Z,1010.0
2019-06-08T11:36:15.277Z,1010.4
2019-06-08T11:37:20.823Z,1010.3
2019-06-08T11:38:20.109Z,1010.4
2019-06-08T11:39:19.240Z,1010.2
2019-06-08T11:40:21.014Z,1010.2
2019-06-08T11:41:22.956Z,1010.1
2019-06-08T11:42:25.534Z,1010.2
2019-06-08T11:43:24.655Z,1010.1
2019-06-08T11:44:27.587Z,1010.0
2019-06-08T11:45:27.435Z,1010.2
2019-06-08T11:46:28.861Z,1010.1
2019-06-08T11:47:31.003Z,1010.2
2019-06-08T11:48:31.541Z,1010.1
2019-06-08T11:49:32.934Z,1010.2
2019-06-08T11:50:34.310Z,1010.0
2019-06-08T11:51:37.675Z,1010.0
2019-06-08T11:52:38.246Z,1010.1
2019-06-08T11:53:38.637Z,1010.0
2019-06-08T11:54:41.008Z,1010.0
2019-06-08T11:55:41.341Z,1010.1
2019-06-08T11:56:42.720Z,1010.1
2019-06-08T11:57:44.106Z,1010.3
2019-06-08T11:58:48.450Z,1010.3
2019-06-08T11:59:48.459Z,1010.4
2019-06-08T12:00:48.862Z,1010.2
2019-06-08T12:01:50.506Z,1010.3
2019-06-08T12:02:51.106Z,1010.3
2019-06-08T12:03:52.485Z,1010.2
2019-06-08T12:04:53.868Z,1010.1
2019-06-08T12:05:55.256Z,1010.1
2019-06-08T12:06:58.299Z,1010.1
2019-06-08T12:07:57.977Z,1010.2
2019-06-08T12:09:00.297Z,1010.0
2019-06-08T12:10:00.700Z,1010.1
2019-06-08T12:11:03.758Z,1010.1
2019-06-08T12:12:04.485Z,1010.2
2019-06-08T12:13:04.775Z,1010.3
2019-06-08T12:14:08.111Z,1010.3
2019-06-08T12:15:11.168Z,1010.5
2019-06-08T12:16:14.917Z,1010.5
2019-06-08T12:17:13.490Z,1010.4
2019-06-08T12:18:12.617Z,1010.3
2019-06-08T12:19:16.650Z,1010.4
2019-06-08T12:20:17.473Z,1010.5
2019-06-08T12:21:15.555Z,1010.5
2019-06-08T12:22:21.691Z,1010.7
2019-06-08T12:23:20.258Z,1010.4
2019-06-08T12:24:21.642Z,1010.5
2019-06-08T12:25:23.019Z,1010.5
2019-06-08T12:26:24.401Z,1010.3
2019-06-08T12:27:33.559Z,1010.4
2019-06-08T12:28:28.050Z,1010.4
2019-06-08T12:29:28.521Z,1010.4
2019-06-08T12:30:29.943Z,1010.4
2019-06-08T12:31:31.319Z,1010.2
2019-06-08T12:32:32.700Z,1010.3
2019-06-08T12:33:34.146Z,1010.6
2019-06-08T12:37:15.665Z,1010.3
2019-06-08T12:38:14.231Z,1010.2
2019-06-08T12:39:18.653Z,1010.2
2019-06-08T12:40:18.694Z,1010.2
2019-06-08T12:41:17.852Z,1010.2
2019-06-08T12:42:22.933Z,1010.2
2019-06-08T12:43:20.615Z,1010.2
2019-06-08T12:44:25.497Z,1010.2
2019-06-08T12:45:24.065Z,1010.2
2019-06-08T12:46:27.782Z,1010.1
2019-06-08T12:47:29.849Z,1010.3
2019-06-08T12:48:29.300Z,1010.3